sensor_id;sensor_type;location;lat;lon;timestamp;pressure;altitude;pressure_sealevel;temperature;humidity
75072;BME280;63651;55.728;38.022;2023-10-31T00:00:29;98728.47;;;17.50;45.56
75072;BME280;63651;55.728;38.022;2023-10-31T00:05:30;98742.47;;;17.53;45.59
75072;BME280;63651;55.728;38.022;2023-10-31T00:10:32;98741.38;;;17.54;45.39
75072;BME280;63651;55.728;38.022;2023-10-31T00:15:33;98755.69;;;17.56;45.14
75072;BME280;63651;55.728;38.022;2023-10-31T00:20:34;98761.72;;;17.58;44.88
75072;BME280;63651;55.728;38.022;2023-10-31T00:25:35;98765.84;;;17.61;45.32
75072;BME280;63651;55.728;38.022;2023-10-31T00:30:36;98762.53;;;17.59;44.99
75072;BME280;63651;55.728;38.022;2023-10-31T00:35:37;98773.81;;;17.63;45.10
75072;BME280;63651;55.728;38.022;2023-10-31T00:40:38;98778.47;;;17.62;45.24
75072;BME280;63651;55.728;38.022;2023-10-31T00:45:39;98784.81;;;17.63;45.15
75072;BME280;63651;55.728;38.022;2023-10-31T00:50:41;98797.16;;;17.65;45.16
75072;BME280;63651;55.728;38.022;2023-10-31T00:55:42;98810.34;;;17.63;45.20
75072;BME280;63651;55.728;38.022;2023-10-31T01:00:43;98818.06;;;17.66;45.13
75072;BME280;63651;55.728;38.022;2023-10-31T01:05:44;98813.66;;;17.65;44.95
75072;BME280;63651;55.728;38.022;2023-10-31T01:10:46;98816.72;;;17.69;45.11
75072;BME280;63651;55.728;38.022;2023-10-31T01:15:47;98820.56;;;17.68;45.18
75072;BME280;63651;55.728;38.022;2023-10-31T01:20:48;98830.44;;;17.69;45.15
75072;BME280;63651;55.728;38.022;2023-10-31T01:25:49;98842.25;;;17.69;44.88
75072;BME280;63651;55.728;38.022;2023-10-31T01:30:50;98842.53;;;17.68;44.93
75072;BME280;63651;55.728;38.022;2023-10-31T01:35:51;98854.91;;;17.70;45.02
75072;BME280;63651;55.728;38.022;2023-10-31T01:40:53;98873.59;;;17.73;44.92
75072;BME280;63651;55.728;38.022;2023-10-31T01:45:54;98862.88;;;17.72;45.22
75072;BME280;63651;55.728;38.022;2023-10-31T01:50:56;98867.00;;;17.74;44.87
75072;BME280;63651;55.728;38.022;2023-10-31T01:55:59;98862.88;;;17.72;44.92
75072;BME280;63651;55.728;38.022;2023-10-31T02:01:03;98882.94;;;17.72;45.00
75072;BME280;63651;55.728;38.022;2023-10-31T02:06:05;98892.81;;;17.73;44.87
75072;BME280;63651;55.728;38.022;2023-10-31T02:11:06;98898.59;;;17.77;44.81
75072;BME280;63651;55.728;38.022;2023-10-31T02:16:10;98903.53;;;17.75;44.73
75072;BME280;63651;55.728;38.022;2023-10-31T02:21:12;98915.63;;;17.74;45.50
75072;BME280;63651;55.728;38.022;2023-10-31T02:26:13;98918.94;;;17.76;44.77
75072;BME280;63651;55.728;38.022;2023-10-31T02:31:14;98921.41;;;17.77;44.56
75072;BME280;63651;55.728;38.022;2023-10-31T02:36:15;98938.72;;;17.78;44.88
75072;BME280;63651;55.728;38.022;2023-10-31T02:41:16;98940.09;;;17.75;45.23
75072;BME280;63651;55.728;38.022;2023-10-31T02:46:17;98951.09;;;17.80;45.04
75072;BME280;63651;55.728;38.022;2023-10-31T02:51:20;98955.22;;;17.78;44.94
75072;BME280;63651;55.728;38.022;2023-10-31T02:56:21;98950.53;;;17.78;44.76
75072;BME280;63651;55.728;38.022;2023-10-31T03:01:22;98965.94;;;17.79;45.09
75072;BME280;63651;55.728;38.022;2023-10-31T03:06:23;98959.34;;;17.80;44.59
75072;BME280;63651;55.728;38.022;2023-10-31T03:11:25;98973.34;;;17.79;45.04
75072;BME280;63651;55.728;38.022;2023-10-31T03:16:26;98976.66;;;17.81;44.64
75072;BME280;63651;55.728;38.022;2023-10-31T03:21:27;98986.00;;;17.80;44.87
75072;BME280;63651;55.728;38.022;2023-10-31T03:26:28;98998.63;;;17.81;44.81
75072;BME280;63651;55.728;38.022;2023-10-31T03:31:30;98990.38;;;17.81;44.82
75072;BME280;63651;55.728;38.022;2023-10-31T03:36:31;99001.38;;;17.81;45.15
75072;BME280;63651;55.728;38.022;2023-10-31T03:41:32;99008.53;;;17.82;44.96
75072;BME280;63651;55.728;38.022;2023-10-31T03:46:33;99010.19;;;17.83;44.99
75072;BME280;63651;55.728;38.022;2023-10-31T03:51:34;99018.16;;;17.84;44.96
75072;BME280;63651;55.728;38.022;2023-10-31T03:56:42;99034.13;;;17.87;45.11
75072;BME280;63651;55.728;38.022;2023-10-31T04:01:43;99031.34;;;17.82;45.19
75072;BME280;63651;55.728;38.022;2023-10-31T04:06:45;99045.38;;;17.86;45.04
75072;BME280;63651;55.728;38.022;2023-10-31T04:11:46;99053.34;;;17.87;45.26
75072;BME280;63651;55.728;38.022;2023-10-31T04:16:47;99054.44;;;17.86;45.50
75072;BME280;63651;55.728;38.022;2023-10-31T04:21:48;99068.47;;;17.90;45.40
75072;BME280;63651;55.728;38.022;2023-10-31T04:26:49;99068.22;;;17.91;45.42
75072;BME280;63651;55.728;38.022;2023-10-31T04:31:51;99076.22;;;17.98;45.69
75072;BME280;63651;55.728;38.022;2023-10-31T04:36:52;99081.97;;;17.97;45.71
75072;BME280;63651;55.728;38.022;2023-10-31T04:41:53;99074.00;;;17.95;45.94
75072;BME280;63651;55.728;38.022;2023-10-31T04:46:54;99089.69;;;18.00;45.86
75072;BME280;63651;55.728;38.022;2023-10-31T04:51:55;99085.06;;;18.05;46.13
75072;BME280;63651;55.728;38.022;2023-10-31T04:56:56;99091.69;;;18.09;45.84
75072;BME280;63651;55.728;38.022;2023-10-31T05:01:57;99101.59;;;18.10;45.87
75072;BME280;63651;55.728;38.022;2023-10-31T05:06:59;99112.06;;;18.13;46.08
75072;BME280;63651;55.728;38.022;2023-10-31T05:12:00;99118.38;;;18.14;46.23
75072;BME280;63651;55.728;38.022;2023-10-31T05:17:01;99121.94;;;18.14;45.84
75072;BME280;63651;55.728;38.022;2023-10-31T05:22:02;99125.81;;;18.18;45.93
75072;BME280;63651;55.728;38.022;2023-10-31T05:27:03;99129.41;;;18.19;45.91
75072;BME280;63651;55.728;38.022;2023-10-31T05:32:06;99135.72;;;18.19;45.87
75072;BME280;63651;55.728;38.022;2023-10-31T05:37:07;99127.81;;;18.23;46.05
75072;BME280;63651;55.728;38.022;2023-10-31T05:42:08;99137.19;;;18.27;45.90
75072;BME280;63651;55.728;38.022;2023-10-31T05:47:09;99138.31;;;18.31;45.87
75072;BME280;63651;55.728;38.022;2023-10-31T05:52:11;99148.22;;;18.32;46.16
75072;BME280;63651;55.728;38.022;2023-10-31T05:57:12;99161.69;;;18.34;46.04
75072;BME280;63651;55.728;38.022;2023-10-31T06:02:15;99171.06;;;18.38;46.14
75072;BME280;63651;55.728;38.022;2023-10-31T06:07:16;99189.22;;;18.39;46.01
75072;BME280;63651;55.728;38.022;2023-10-31T06:12:17;99178.75;;;18.36;45.86
75072;BME280;63651;55.728;38.022;2023-10-31T06:17:19;99182.66;;;18.45;46.11
75072;BME280;63651;55.728;38.022;2023-10-31T06:22:20;99199.47;;;18.48;45.96
75072;BME280;63651;55.728;38.022;2023-10-31T06:27:21;99210.50;;;18.53;45.91
75072;BME280;63651;55.728;38.022;2023-10-31T06:32:22;99216.81;;;18.54;45.66
75072;BME280;63651;55.728;38.022;2023-10-31T06:37:23;99216.84;;;18.59;45.65
75072;BME280;63651;55.728;38.022;2023-10-31T06:42:24;99216.59;;;18.61;45.66
75072;BME280;63651;55.728;38.022;2023-10-31T06:47:25;99217.22;;;18.68;45.75
75072;BME280;63651;55.728;38.022;2023-10-31T06:52:26;99221.63;;;18.69;45.67
75072;BME280;63651;55.728;38.022;2023-10-31T06:57:27;99220.81;;;18.73;45.33
75072;BME280;63651;55.728;38.022;2023-10-31T07:02:29;99231.84;;;18.78;45.05
75072;BME280;63651;55.728;38.022;2023-10-31T07:07:30;99236.53;;;18.78;44.92
75072;BME280;63651;55.728;38.022;2023-10-31T07:12:31;99250.03;;;18.79;44.96
75072;BME280;63651;55.728;38.022;2023-10-31T07:17:32;99270.16;;;18.85;45.36
75072;BME280;63651;55.728;38.022;2023-10-31T07:42:37;99289.19;;;18.92;nan
75072;BME280;63651;55.728;38.022;2023-10-31T07:47:38;99301.31;;;18.96;nan
75072;BME280;63651;55.728;38.022;2023-10-31T07:52:39;99303.25;;;18.95;nan
75072;BME280;63651;55.728;38.022;2023-10-31T07:57:40;99297.16;;;18.93;nan
75072;BME280;63651;55.728;38.022;2023-10-31T08:02:42;99302.72;;;18.98;nan
75072;BME280;63651;55.728;38.022;2023-10-31T08:07:43;99309.34;;;19.02;nan
75072;BME280;63651;55.728;38.022;2023-10-31T08:12:44;99319.03;;;19.10;nan
75072;BME280;63651;55.728;38.022;2023-10-31T08:17:45;99325.66;;;19.14;nan
75072;BME280;63651;55.728;38.022;2023-10-31T08:22:46;99327.91;;;19.27;nan
75072;BME280;63651;55.728;38.022;2023-10-31T08:27:48;99317.50;;;19.39;nan
75072;BME280;63651;55.728;38.022;2023-10-31T08:32:49;99320.84;;;19.46;nan
75072;BME280;63651;55.728;38.022;2023-10-31T08:37:50;99308.47;;;19.49;nan
75072;BME280;63651;55.728;38.022;2023-10-31T08:42:51;99304.41;;;19.57;nan
75072;BME280;63651;55.728;38.022;2023-10-31T08:47:53;99314.09;;;19.64;nan
75072;BME280;63651;55.728;38.022;2023-10-31T08:52:54;99311.34;;;19.64;nan
75072;BME280;63651;55.728;38.022;2023-10-31T08:57:55;99312.72;;;19.67;nan
75072;BME280;63651;55.728;38.022;2023-10-31T09:02:56;99324.03;;;19.70;nan
75072;BME280;63651;55.728;38.022;2023-10-31T09:07:58;99321.81;;;19.67;nan
75072;BME280;63651;55.728;38.022;2023-10-31T09:13:00;99312.16;;;19.65;nan
75072;BME280;63651;55.728;38.022;2023-10-31T09:18:02;99319.88;;;19.63;nan
75072;BME280;63651;55.728;38.022;2023-10-31T09:23:03;99313.00;;;19.65;nan
75072;BME280;63651;55.728;38.022;2023-10-31T09:28:04;99318.25;;;19.72;nan
75072;BME280;63651;55.728;38.022;2023-10-31T09:33:05;99325.44;;;19.83;nan
75072;BME280;63651;55.728;38.022;2023-10-31T09:38:08;99320.50;;;19.85;nan
75072;BME280;63651;55.728;38.022;2023-10-31T09:43:09;99318.56;;;19.91;nan
75072;BME280;63651;55.728;38.022;2023-10-31T09:48:10;99321.34;;;19.96;nan
75072;BME280;63651;55.728;38.022;2023-10-31T09:53:16;99310.31;;;20.01;nan
75072;BME280;63651;55.728;38.022;2023-10-31T09:58:20;99314.75;;;20.07;nan
75072;BME280;63651;55.728;38.022;2023-10-31T10:03:21;99323.56;;;19.99;nan
75072;BME280;63651;55.728;38.022;2023-10-31T10:08:23;99332.34;;;19.91;nan
75072;BME280;63651;55.728;38.022;2023-10-31T10:13:24;99323.00;;;19.97;nan
75072;BME280;63651;55.728;38.022;2023-10-31T10:23:28;99347.53;;;19.93;nan
75072;BME280;63651;55.728;38.022;2023-10-31T10:28:29;99336.78;;;20.02;nan
75072;BME280;63651;55.728;38.022;2023-10-31T10:33:30;99344.78;;;20.03;nan
75072;BME280;63651;55.728;38.022;2023-10-31T10:38:34;99327.41;;;20.03;nan
75072;BME280;63651;55.728;38.022;2023-10-31T10:43:37;99321.63;;;20.04;nan
75072;BME280;63651;55.728;38.022;2023-10-31T10:48:45;99336.25;;;20.10;nan
75072;BME280;63651;55.728;38.022;2023-10-31T10:53:57;99324.19;;;20.47;nan
75072;BME280;63651;55.728;38.022;2023-10-31T10:59:03;99300.38;;;21.12;nan
